Aérodrome :
LOGIN :

S'inscrire | Disclaimer

   EN    FR    IT 

 










Légende :    VFR   VFR Marginal   IFR   IFR Intensif   IFR Très Intensif
Visi : 
Plafond : 
>= 8 km
>= 3000ft
5 à 8 km
1000 à 3000 ft
1500m à 5 km
500 à 1000 ft
800 à 1500m
200 à 500 ft
< 800m
< 200 ft
Symboles :   Orages  Brouillard  Fortes neiges  Fortes précipitations  Vent > 20 kt
SIGMETs :   Divers  Orages  Givrage  Turbulence  Onde Orograph.  Cendres Volcan.







- Altitude de l'aérodrome : 392 ft
- Code IATA : CDG
- Voir les cartes d'approche


LFPG - Paris-Aeroport Charles De Gaulle

DERNIER METAR :
  • 280300Z 23017G28KT 9999 BKN024 05/01 Q0994 TEMPO 23020G30KT

METARs EXPIRÉS :
  • 280230Z 23018KT 9999 BKN023 05/01 Q0994 TEMPO 23020G30KT
  • 280200Z 23016KT 9999 BKN022 05/01 Q0994 TEMPO 23020G30KT
  • 280130Z 23015KT 9999 SCT021 SCT160 05/01 Q0994 TEMPO 23020G30KT
  • 280100Z 22018KT 9999 BKN023 SCT160 05/01 Q0994 TEMPO 23020G30KT
  • 280030Z 23016KT 9999 SCT025 05/00 Q0994 TEMPO 23020G30KT

TAF AMD TAF LFPG
Valide du 28 à 00h jusqu'au 01 à 06h UTC


272334Z 2800/0106 22018KT 9999 SCT025
TEMPO 2800/2804 22018G30KT
BECMG 2806/2807 19015G25KT SCT020TCU BKN025
PROB40
TEMPO 2808/2816 25020G35KT 4000 SHRAGS
PROB30
TEMPO 2809/2815 3000 -TSRAGR SCT015CB BKN020
BECMG 2812/2815 26015G25KT
PROB40
TEMPO 2820/2823 24020G30KT 4000 SHRAGS SCT020CB BKN025
BECMG 0100/0103 BKN025
BECMG 0103/0106 25012KT TX08/2818Z TN05/2806Z
ATIS : +33 1 48 62 10 92
Pas de NOTAMs connus pour ce terrain.
1 SIGMET publié pour la FIR Paris (LFFF) :
 
Turbulence forte
LFFF SIGMET 11 VALID 280000/280400 LFPW
LFFF PARIS FIR/UIR SEV TURB FCST WI N4915 W00015 - N5000 W00015 - N5100 E00145 - N5015 E00200 SFC/FL060 STNR NC=



MET'MAP, la Météo Aéronautique d'un coup d'oeil ! - Copyright ORBIFLY Décembre 2007 - Disclaimer

ORBIFLY MET'MAP TEAM :

Programmation & Développement : Alexandra Zaïnal
Conception & Développement : Baudouin d'Aumeries
Co-Programmation & Développement : Marc-Olivier Méhu
Soutien technique & logistique : Manuel Goepfert

Contact : metmap@orbifly.com




SOURCES & CREDITS :

   NOAA